sensor_id;sensor_type;location;lat;lon;timestamp;P1;durP1;ratioP1;P2;durP2;ratioP2
803;SDS011;25687;49.976;8.240;2023-04-25T00:02:08;6.17;;;5.67;;
803;SDS011;25687;49.976;8.240;2023-04-25T00:04:33;6.90;;;6.30;;
803;SDS011;25687;49.976;8.240;2023-04-25T00:06:59;6.87;;;6.27;;
803;SDS011;25687;49.976;8.240;2023-04-25T00:09:27;6.90;;;6.30;;
803;SDS011;25687;49.976;8.240;2023-04-25T00:11:53;7.37;;;6.67;;
803;SDS011;25687;49.976;8.240;2023-04-25T00:14:18;7.00;;;6.30;;
803;SDS011;25687;49.976;8.240;2023-04-25T00:16:43;6.40;;;5.90;;
803;SDS011;25687;49.976;8.240;2023-04-25T00:19:09;7.20;;;6.50;;
803;SDS011;25687;49.976;8.240;2023-04-25T00:21:34;7.10;;;6.50;;
803;SDS011;25687;49.976;8.240;2023-04-25T00:24:00;7.90;;;7.20;;
803;SDS011;25687;49.976;8.240;2023-04-25T00:26:26;6.93;;;6.33;;
803;SDS011;25687;49.976;8.240;2023-04-25T00:28:52;7.70;;;6.53;;
803;SDS011;25687;49.976;8.240;2023-04-25T00:31:17;7.83;;;7.03;;
803;SDS011;25687;49.976;8.240;2023-04-25T00:33:42;7.90;;;7.20;;
803;SDS011;25687;49.976;8.240;2023-04-25T00:36:08;8.00;;;6.27;;
803;SDS011;25687;49.976;8.240;2023-04-25T00:38:33;6.90;;;6.30;;
803;SDS011;25687;49.976;8.240;2023-04-25T00:40:59;6.87;;;6.27;;
803;SDS011;25687;49.976;8.240;2023-04-25T00:43:25;6.83;;;6.23;;
803;SDS011;25687;49.976;8.240;2023-04-25T00:45:51;7.77;;;6.10;;
803;SDS011;25687;49.976;8.240;2023-04-25T00:48:17;9.37;;;6.50;;
803;SDS011;25687;49.976;8.240;2023-04-25T00:50:45;6.90;;;6.30;;
803;SDS011;25687;49.976;8.240;2023-04-25T00:53:16;6.53;;;6.00;;
803;SDS011;25687;49.976;8.240;2023-04-25T00:55:41;7.37;;;6.67;;
803;SDS011;25687;49.976;8.240;2023-04-25T00:58:06;7.07;;;6.47;;
803;SDS011;25687;49.976;8.240;2023-04-25T01:00:32;6.37;;;5.87;;
803;SDS011;25687;49.976;8.240;2023-04-25T01:02:57;6.90;;;6.30;;
803;SDS011;25687;49.976;8.240;2023-04-25T01:05:23;6.97;;;6.37;;
803;SDS011;25687;49.976;8.240;2023-04-25T01:07:48;7.17;;;6.47;;
803;SDS011;25687;49.976;8.240;2023-04-25T01:10:14;7.33;;;6.63;;
803;SDS011;25687;49.976;8.240;2023-04-25T01:12:40;6.43;;;5.90;;
803;SDS011;25687;49.976;8.240;2023-04-25T01:15:06;7.93;;;6.30;;
803;SDS011;25687;49.976;8.240;2023-04-25T01:17:31;8.47;;;6.57;;
803;SDS011;25687;49.976;8.240;2023-04-25T01:19:58;6.40;;;5.80;;
803;SDS011;25687;49.976;8.240;2023-04-25T01:22:25;6.23;;;5.73;;
803;SDS011;25687;49.976;8.240;2023-04-25T01:24:50;7.00;;;6.30;;
803;SDS011;25687;49.976;8.240;2023-04-25T01:30:38;7.00;;;6.40;;
803;SDS011;25687;49.976;8.240;2023-04-25T01:33:04;6.90;;;6.30;;
803;SDS011;25687;49.976;8.240;2023-04-25T01:35:30;6.87;;;6.20;;
803;SDS011;25687;49.976;8.240;2023-04-25T01:37:56;6.93;;;6.23;;
803;SDS011;25687;49.976;8.240;2023-04-25T01:40:22;7.33;;;6.73;;
803;SDS011;25687;49.976;8.240;2023-04-25T01:42:49;6.83;;;6.23;;
803;SDS011;25687;49.976;8.240;2023-04-25T01:45:14;7.33;;;6.73;;
803;SDS011;25687;49.976;8.240;2023-04-25T01:47:40;6.80;;;6.10;;
803;SDS011;25687;49.976;8.240;2023-04-25T01:50:08;8.40;;;7.70;;
803;SDS011;25687;49.976;8.240;2023-04-25T01:52:33;8.70;;;7.23;;
803;SDS011;25687;49.976;8.240;2023-04-25T01:54:59;6.73;;;6.23;;
803;SDS011;25687;49.976;8.240;2023-04-25T01:57:26;7.90;;;7.20;;
803;SDS011;25687;49.976;8.240;2023-04-25T01:59:53;7.17;;;6.50;;
803;SDS011;25687;49.976;8.240;2023-04-25T02:02:23;7.03;;;6.27;;
803;SDS011;25687;49.976;8.240;2023-04-25T02:04:48;9.77;;;6.47;;
803;SDS011;25687;49.976;8.240;2023-04-25T02:07:13;7.07;;;6.47;;
803;SDS011;25687;49.976;8.240;2023-04-25T02:09:39;7.30;;;6.60;;
803;SDS011;25687;49.976;8.240;2023-04-25T02:12:04;10.33;;;7.27;;
803;SDS011;25687;49.976;8.240;2023-04-25T02:14:29;7.43;;;6.83;;
803;SDS011;25687;49.976;8.240;2023-04-25T02:16:55;7.37;;;6.77;;
803;SDS011;25687;49.976;8.240;2023-04-25T02:19:20;7.50;;;6.80;;
803;SDS011;25687;49.976;8.240;2023-04-25T02:21:45;8.10;;;7.30;;
803;SDS011;25687;49.976;8.240;2023-04-25T02:24:11;8.10;;;7.40;;
803;SDS011;25687;49.976;8.240;2023-04-25T02:26:36;7.97;;;7.23;;
803;SDS011;25687;49.976;8.240;2023-04-25T02:29:01;7.90;;;7.20;;
803;SDS011;25687;49.976;8.240;2023-04-25T02:31:27;7.87;;;7.17;;
803;SDS011;25687;49.976;8.240;2023-04-25T02:33:52;8.20;;;7.40;;
803;SDS011;25687;49.976;8.240;2023-04-25T02:36:17;8.17;;;7.37;;
803;SDS011;25687;49.976;8.240;2023-04-25T02:38:42;8.57;;;7.70;;
803;SDS011;25687;49.976;8.240;2023-04-25T02:41:08;8.97;;;8.17;;
803;SDS011;25687;49.976;8.240;2023-04-25T02:43:33;8.30;;;7.50;;
803;SDS011;25687;49.976;8.240;2023-04-25T02:45:58;9.47;;;8.67;;
803;SDS011;25687;49.976;8.240;2023-04-25T02:48:23;9.77;;;8.37;;
803;SDS011;25687;49.976;8.240;2023-04-25T02:50:49;10.70;;;8.07;;
803;SDS011;25687;49.976;8.240;2023-04-25T02:53:14;9.10;;;8.20;;
803;SDS011;25687;49.976;8.240;2023-04-25T02:55:40;9.60;;;8.53;;
803;SDS011;25687;49.976;8.240;2023-04-25T02:58:05;9.07;;;8.17;;
803;SDS011;25687;49.976;8.240;2023-04-25T03:00:30;10.63;;;8.20;;
803;SDS011;25687;49.976;8.240;2023-04-25T03:02:57;9.60;;;8.63;;
803;SDS011;25687;49.976;8.240;2023-04-25T03:05:23;10.00;;;8.93;;
803;SDS011;25687;49.976;8.240;2023-04-25T03:07:48;9.87;;;8.97;;
803;SDS011;25687;49.976;8.240;2023-04-25T03:10:13;10.13;;;9.13;;
803;SDS011;25687;49.976;8.240;2023-04-25T03:12:39;10.10;;;9.10;;
803;SDS011;25687;49.976;8.240;2023-04-25T03:15:04;11.33;;;10.30;;
803;SDS011;25687;49.976;8.240;2023-04-25T03:17:30;10.23;;;9.27;;
803;SDS011;25687;49.976;8.240;2023-04-25T03:19:55;10.50;;;9.60;;
803;SDS011;25687;49.976;8.240;2023-04-25T03:22:21;11.07;;;9.23;;
803;SDS011;25687;49.976;8.240;2023-04-25T03:24:46;9.30;;;8.43;;
803;SDS011;25687;49.976;8.240;2023-04-25T03:27:12;9.73;;;8.57;;
803;SDS011;25687;49.976;8.240;2023-04-25T03:29:38;10.63;;;9.53;;
803;SDS011;25687;49.976;8.240;2023-04-25T03:32:03;11.70;;;9.83;;
803;SDS011;25687;49.976;8.240;2023-04-25T03:34:29;10.63;;;9.53;;
803;SDS011;25687;49.976;8.240;2023-04-25T03:36:54;10.63;;;9.60;;
803;SDS011;25687;49.976;8.240;2023-04-25T03:39:20;11.53;;;10.10;;
803;SDS011;25687;49.976;8.240;2023-04-25T03:41:45;12.73;;;10.53;;
803;SDS011;25687;49.976;8.240;2023-04-25T03:44:10;18.97;;;11.97;;
803;SDS011;25687;49.976;8.240;2023-04-25T03:46:36;13.17;;;11.50;;
803;SDS011;25687;49.976;8.240;2023-04-25T03:49:01;17.23;;;13.07;;
803;SDS011;25687;49.976;8.240;2023-04-25T03:51:26;16.53;;;13.43;;
803;SDS011;25687;49.976;8.240;2023-04-25T03:53:52;16.60;;;12.90;;
803;SDS011;25687;49.976;8.240;2023-04-25T03:56:17;13.83;;;11.17;;
803;SDS011;25687;49.976;8.240;2023-04-25T03:58:43;13.17;;;11.70;;
803;SDS011;25687;49.976;8.240;2023-04-25T04:01:08;14.30;;;11.50;;
803;SDS011;25687;49.976;8.240;2023-04-25T04:03:34;16.90;;;12.07;;
803;SDS011;25687;49.976;8.240;2023-04-25T04:06:00;14.33;;;12.83;;
803;SDS011;25687;49.976;8.240;2023-04-25T04:08:26;15.53;;;12.20;;
803;SDS011;25687;49.976;8.240;2023-04-25T04:10:51;13.53;;;11.57;;
803;SDS011;25687;49.976;8.240;2023-04-25T04:13:17;16.17;;;12.47;;
803;SDS011;25687;49.976;8.240;2023-04-25T04:15:42;15.57;;;11.90;;
803;SDS011;25687;49.976;8.240;2023-04-25T04:18:07;15.47;;;13.03;;
803;SDS011;25687;49.976;8.240;2023-04-25T04:20:32;14.70;;;11.63;;
803;SDS011;25687;49.976;8.240;2023-04-25T04:22:58;16.67;;;13.23;;
803;SDS011;25687;49.976;8.240;2023-04-25T04:25:23;16.03;;;12.97;;
803;SDS011;25687;49.976;8.240;2023-04-25T04:27:49;16.37;;;12.13;;
803;SDS011;25687;49.976;8.240;2023-04-25T04:30:19;16.23;;;12.50;;
803;SDS011;25687;49.976;8.240;2023-04-25T04:32:45;13.97;;;11.90;;
803;SDS011;25687;49.976;8.240;2023-04-25T04:35:10;15.00;;;11.60;;
803;SDS011;25687;49.976;8.240;2023-04-25T04:37:36;16.17;;;11.33;;
803;SDS011;25687;49.976;8.240;2023-04-25T04:40:01;14.30;;;11.13;;
803;SDS011;25687;49.976;8.240;2023-04-25T04:42:30;12.70;;;11.40;;
803;SDS011;25687;49.976;8.240;2023-04-25T04:44:55;15.10;;;12.13;;
803;SDS011;25687;49.976;8.240;2023-04-25T04:47:20;15.30;;;10.70;;
803;SDS011;25687;49.976;8.240;2023-04-25T04:49:48;14.00;;;8.53;;
803;SDS011;25687;49.976;8.240;2023-04-25T04:52:13;15.87;;;8.07;;
803;SDS011;25687;49.976;8.240;2023-04-25T04:54:39;13.43;;;8.67;;
803;SDS011;25687;49.976;8.240;2023-04-25T04:57:04;17.53;;;8.90;;
803;SDS011;25687;49.976;8.240;2023-04-25T04:59:29;13.27;;;8.77;;
803;SDS011;25687;49.976;8.240;2023-04-25T05:01:55;17.47;;;9.57;;
803;SDS011;25687;49.976;8.240;2023-04-25T05:04:20;12.97;;;7.97;;
803;SDS011;25687;49.976;8.240;2023-04-25T05:06:45;14.97;;;7.77;;
803;SDS011;25687;49.976;8.240;2023-04-25T05:09:12;13.73;;;7.83;;
803;SDS011;25687;49.976;8.240;2023-04-25T05:11:37;16.70;;;8.57;;
803;SDS011;25687;49.976;8.240;2023-04-25T05:14:02;14.27;;;7.70;;
803;SDS011;25687;49.976;8.240;2023-04-25T05:16:28;17.90;;;8.37;;
803;SDS011;25687;49.976;8.240;2023-04-25T05:18:53;19.17;;;9.23;;
803;SDS011;25687;49.976;8.240;2023-04-25T05:21:18;16.47;;;8.90;;
803;SDS011;25687;49.976;8.240;2023-04-25T05:23:44;13.63;;;8.03;;
803;SDS011;25687;49.976;8.240;2023-04-25T05:26:09;15.67;;;8.27;;
803;SDS011;25687;49.976;8.240;2023-04-25T05:28:39;18.77;;;8.37;;
803;SDS011;25687;49.976;8.240;2023-04-25T05:31:07;12.93;;;8.47;;
803;SDS011;25687;49.976;8.240;2023-04-25T05:33:34;12.70;;;7.43;;
803;SDS011;25687;49.976;8.240;2023-04-25T05:36:00;11.80;;;6.83;;
803;SDS011;25687;49.976;8.240;2023-04-25T05:38:25;17.07;;;8.33;;
803;SDS011;25687;49.976;8.240;2023-04-25T05:40:51;15.80;;;7.47;;
803;SDS011;25687;49.976;8.240;2023-04-25T05:43:16;12.03;;;7.77;;
803;SDS011;25687;49.976;8.240;2023-04-25T05:45:41;15.97;;;8.27;;
803;SDS011;25687;49.976;8.240;2023-04-25T05:48:06;14.90;;;6.97;;
803;SDS011;25687;49.976;8.240;2023-04-25T05:50:32;11.70;;;7.43;;
803;SDS011;25687;49.976;8.240;2023-04-25T05:52:57;10.77;;;6.37;;
803;SDS011;25687;49.976;8.240;2023-04-25T05:55:22;9.93;;;7.00;;
803;SDS011;25687;49.976;8.240;2023-04-25T05:57:49;11.27;;;6.73;;
803;SDS011;25687;49.976;8.240;2023-04-25T06:00:15;11.07;;;7.00;;
803;SDS011;25687;49.976;8.240;2023-04-25T06:02:40;12.70;;;7.27;;
803;SDS011;25687;49.976;8.240;2023-04-25T06:05:07;15.97;;;7.83;;
803;SDS011;25687;49.976;8.240;2023-04-25T06:07:32;11.70;;;7.10;;
803;SDS011;25687;49.976;8.240;2023-04-25T06:09:58;10.47;;;6.93;;
803;SDS011;25687;49.976;8.240;2023-04-25T06:12:24;12.60;;;6.53;;
803;SDS011;25687;49.976;8.240;2023-04-25T06:14:49;10.03;;;6.53;;
803;SDS011;25687;49.976;8.240;2023-04-25T06:17:15;11.77;;;6.37;;
803;SDS011;25687;49.976;8.240;2023-04-25T06:19:40;13.63;;;6.87;;
803;SDS011;25687;49.976;8.240;2023-04-25T06:22:05;8.03;;;5.77;;
803;SDS011;25687;49.976;8.240;2023-04-25T06:24:32;13.43;;;6.73;;
803;SDS011;25687;49.976;8.240;2023-04-25T06:26:57;13.27;;;6.83;;
803;SDS011;25687;49.976;8.240;2023-04-25T06:29:23;9.70;;;5.97;;
803;SDS011;25687;49.976;8.240;2023-04-25T06:31:48;8.87;;;5.23;;
803;SDS011;25687;49.976;8.240;2023-04-25T06:34:13;9.50;;;4.87;;
803;SDS011;25687;49.976;8.240;2023-04-25T06:36:39;7.73;;;5.47;;
803;SDS011;25687;49.976;8.240;2023-04-25T06:39:04;11.60;;;6.07;;
803;SDS011;25687;49.976;8.240;2023-04-25T06:41:29;14.23;;;5.70;;
803;SDS011;25687;49.976;8.240;2023-04-25T06:43:55;12.13;;;5.93;;
803;SDS011;25687;49.976;8.240;2023-04-25T06:46:20;11.30;;;6.07;;
803;SDS011;25687;49.976;8.240;2023-04-25T06:48:45;10.60;;;6.13;;
803;SDS011;25687;49.976;8.240;2023-04-25T06:51:11;10.80;;;5.93;;
803;SDS011;25687;49.976;8.240;2023-04-25T06:53:38;10.73;;;5.33;;
803;SDS011;25687;49.976;8.240;2023-04-25T06:56:03;13.47;;;5.70;;
803;SDS011;25687;49.976;8.240;2023-04-25T06:58:29;12.40;;;5.87;;
803;SDS011;25687;49.976;8.240;2023-04-25T07:00:54;15.33;;;5.13;;
803;SDS011;25687;49.976;8.240;2023-04-25T07:03:20;10.43;;;4.73;;
803;SDS011;25687;49.976;8.240;2023-04-25T07:05:45;10.10;;;4.70;;
803;SDS011;25687;49.976;8.240;2023-04-25T07:08:11;16.10;;;5.70;;
803;SDS011;25687;49.976;8.240;2023-04-25T07:10:36;9.63;;;5.03;;
803;SDS011;25687;49.976;8.240;2023-04-25T07:13:01;8.30;;;5.20;;
803;SDS011;25687;49.976;8.240;2023-04-25T07:15:26;9.27;;;5.13;;
803;SDS011;25687;49.976;8.240;2023-04-25T07:17:52;8.97;;;4.17;;
803;SDS011;25687;49.976;8.240;2023-04-25T07:20:17;7.53;;;5.00;;
803;SDS011;25687;49.976;8.240;2023-04-25T07:22:42;8.27;;;4.47;;
803;SDS011;25687;49.976;8.240;2023-04-25T07:25:08;8.37;;;4.30;;
803;SDS011;25687;49.976;8.240;2023-04-25T07:27:34;7.03;;;4.87;;
803;SDS011;25687;49.976;8.240;2023-04-25T07:29:59;8.00;;;3.73;;
803;SDS011;25687;49.976;8.240;2023-04-25T07:32:25;11.90;;;4.33;;
803;SDS011;25687;49.976;8.240;2023-04-25T07:34:51;13.30;;;4.00;;
803;SDS011;25687;49.976;8.240;2023-04-25T07:37:17;9.17;;;3.90;;
803;SDS011;25687;49.976;8.240;2023-04-25T07:39:43;8.70;;;4.13;;
803;SDS011;25687;49.976;8.240;2023-04-25T07:42:11;7.93;;;3.63;;
803;SDS011;25687;49.976;8.240;2023-04-25T07:44:36;10.43;;;4.53;;
803;SDS011;25687;49.976;8.240;2023-04-25T07:47:04;7.87;;;4.10;;
803;SDS011;25687;49.976;8.240;2023-04-25T07:49:32;8.17;;;3.50;;
803;SDS011;25687;49.976;8.240;2023-04-25T07:51:57;5.27;;;2.90;;
803;SDS011;25687;49.976;8.240;2023-04-25T07:54:23;4.00;;;2.67;;
803;SDS011;25687;49.976;8.240;2023-04-25T07:56:48;3.63;;;2.13;;
803;SDS011;25687;49.976;8.240;2023-04-25T07:59:13;3.20;;;1.73;;
803;SDS011;25687;49.976;8.240;2023-04-25T08:01:39;4.93;;;2.23;;
803;SDS011;25687;49.976;8.240;2023-04-25T08:04:04;4.23;;;1.80;;
803;SDS011;25687;49.976;8.240;2023-04-25T08:06:30;4.87;;;2.00;;
803;SDS011;25687;49.976;8.240;2023-04-25T08:08:56;3.07;;;2.20;;
803;SDS011;25687;49.976;8.240;2023-04-25T08:11:21;7.67;;;2.27;;
803;SDS011;25687;49.976;8.240;2023-04-25T08:13:46;5.13;;;2.20;;
803;SDS011;25687;49.976;8.240;2023-04-25T08:16:12;3.30;;;2.23;;
803;SDS011;25687;49.976;8.240;2023-04-25T08:18:37;3.97;;;2.20;;
803;SDS011;25687;49.976;8.240;2023-04-25T08:21:02;4.03;;;1.90;;
803;SDS011;25687;49.976;8.240;2023-04-25T08:23:28;3.57;;;2.10;;
803;SDS011;25687;49.976;8.240;2023-04-25T08:25:53;3.67;;;2.20;;
803;SDS011;25687;49.976;8.240;2023-04-25T08:28:19;4.57;;;2.10;;
803;SDS011;25687;49.976;8.240;2023-04-25T08:30:44;4.23;;;2.07;;
803;SDS011;25687;49.976;8.240;2023-04-25T08:33:09;3.37;;;1.83;;
803;SDS011;25687;49.976;8.240;2023-04-25T08:35:35;4.07;;;1.87;;
803;SDS011;25687;49.976;8.240;2023-04-25T08:38:01;2.67;;;1.37;;
803;SDS011;25687;49.976;8.240;2023-04-25T08:40:26;2.60;;;1.77;;
803;SDS011;25687;49.976;8.240;2023-04-25T08:42:55;4.77;;;2.03;;
803;SDS011;25687;49.976;8.240;2023-04-25T08:45:22;3.70;;;1.80;;
803;SDS011;25687;49.976;8.240;2023-04-25T08:47:47;3.77;;;2.07;;
803;SDS011;25687;49.976;8.240;2023-04-25T08:50:17;4.13;;;2.00;;
803;SDS011;25687;49.976;8.240;2023-04-25T08:52:45;6.17;;;2.30;;
803;SDS011;25687;49.976;8.240;2023-04-25T08:55:13;4.93;;;2.20;;
803;SDS011;25687;49.976;8.240;2023-04-25T08:57:39;5.03;;;2.23;;
803;SDS011;25687;49.976;8.240;2023-04-25T09:00:07;3.83;;;2.33;;
803;SDS011;25687;49.976;8.240;2023-04-25T09:02:34;4.43;;;2.50;;
803;SDS011;25687;49.976;8.240;2023-04-25T09:05:00;4.07;;;2.57;;
803;SDS011;25687;49.976;8.240;2023-04-25T09:07:27;2.83;;;2.23;;
803;SDS011;25687;49.976;8.240;2023-04-25T09:09:53;5.40;;;2.47;;
803;SDS011;25687;49.976;8.240;2023-04-25T09:12:19;4.13;;;2.70;;
803;SDS011;25687;49.976;8.240;2023-04-25T09:14:56;4.50;;;2.37;;
803;SDS011;25687;49.976;8.240;2023-04-25T09:17:27;3.97;;;2.20;;
803;SDS011;25687;49.976;8.240;2023-04-25T09:19:53;6.03;;;2.43;;
803;SDS011;25687;49.976;8.240;2023-04-25T09:22:19;6.40;;;2.60;;
803;SDS011;25687;49.976;8.240;2023-04-25T09:24:47;3.97;;;2.50;;
803;SDS011;25687;49.976;8.240;2023-04-25T09:27:17;3.50;;;2.40;;
803;SDS011;25687;49.976;8.240;2023-04-25T09:29:44;5.97;;;2.80;;
803;SDS011;25687;49.976;8.240;2023-04-25T09:32:15;2.67;;;2.40;;
803;SDS011;25687;49.976;8.240;2023-04-25T09:34:54;4.57;;;2.60;;
803;SDS011;25687;49.976;8.240;2023-04-25T09:37:21;5.57;;;3.03;;
803;SDS011;25687;49.976;8.240;2023-04-25T09:39:53;6.67;;;2.73;;
803;SDS011;25687;49.976;8.240;2023-04-25T09:42:23;6.00;;;2.90;;
803;SDS011;25687;49.976;8.240;2023-04-25T09:44:54;3.53;;;2.60;;
803;SDS011;25687;49.976;8.240;2023-04-25T09:47:20;6.20;;;3.03;;
803;SDS011;25687;49.976;8.240;2023-04-25T09:49:48;5.43;;;3.20;;
803;SDS011;25687;49.976;8.240;2023-04-25T09:52:16;6.83;;;3.13;;
803;SDS011;25687;49.976;8.240;2023-04-25T09:54:43;5.73;;;4.10;;
803;SDS011;25687;49.976;8.240;2023-04-25T09:57:13;5.00;;;3.03;;
803;SDS011;25687;49.976;8.240;2023-04-25T09:59:44;6.57;;;3.83;;
803;SDS011;25687;49.976;8.240;2023-04-25T10:02:15;6.50;;;4.00;;
803;SDS011;25687;49.976;8.240;2023-04-25T10:04:47;8.97;;;7.57;;
803;SDS011;25687;49.976;8.240;2023-04-25T10:07:16;5.93;;;3.63;;
803;SDS011;25687;49.976;8.240;2023-04-25T10:09:43;6.67;;;4.37;;
803;SDS011;25687;49.976;8.240;2023-04-25T10:12:13;6.90;;;4.70;;
803;SDS011;25687;49.976;8.240;2023-04-25T10:14:38;5.20;;;3.87;;
803;SDS011;25687;49.976;8.240;2023-04-25T10:17:05;5.77;;;4.30;;
803;SDS011;25687;49.976;8.240;2023-04-25T10:19:31;5.87;;;4.53;;
803;SDS011;25687;49.976;8.240;2023-04-25T10:22:07;5.07;;;4.00;;
803;SDS011;25687;49.976;8.240;2023-04-25T10:24:36;6.63;;;3.83;;
803;SDS011;25687;49.976;8.240;2023-04-25T10:27:03;5.60;;;3.63;;
803;SDS011;25687;49.976;8.240;2023-04-25T10:29:29;7.97;;;3.80;;
803;SDS011;25687;49.976;8.240;2023-04-25T10:31:54;5.60;;;3.73;;
803;SDS011;25687;49.976;8.240;2023-04-25T10:34:23;5.50;;;3.43;;
803;SDS011;25687;49.976;8.240;2023-04-25T10:36:51;6.63;;;3.97;;
803;SDS011;25687;49.976;8.240;2023-04-25T10:39:24;4.67;;;3.67;;
803;SDS011;25687;49.976;8.240;2023-04-25T10:41:58;7.40;;;4.43;;
803;SDS011;25687;49.976;8.240;2023-04-25T10:44:27;6.60;;;4.37;;
803;SDS011;25687;49.976;8.240;2023-04-25T10:46:58;9.50;;;4.67;;
803;SDS011;25687;49.976;8.240;2023-04-25T10:49:29;6.50;;;4.30;;
803;SDS011;25687;49.976;8.240;2023-04-25T10:54:46;8.60;;;4.10;;
803;SDS011;25687;49.976;8.240;2023-04-25T11:00:07;8.10;;;4.37;;
803;SDS011;25687;49.976;8.240;2023-04-25T11:02:36;9.10;;;3.80;;
803;SDS011;25687;49.976;8.240;2023-04-25T11:05:03;10.40;;;4.37;;
803;SDS011;25687;49.976;8.240;2023-04-25T11:10:14;6.33;;;4.13;;
803;SDS011;25687;49.976;8.240;2023-04-25T11:12:39;6.37;;;3.60;;
803;SDS011;25687;49.976;8.240;2023-04-25T11:15:05;5.67;;;3.60;;
803;SDS011;25687;49.976;8.240;2023-04-25T11:17:32;9.60;;;4.03;;
803;SDS011;25687;49.976;8.240;2023-04-25T11:19:58;9.77;;;3.40;;
803;SDS011;25687;49.976;8.240;2023-04-25T11:22:23;6.47;;;3.77;;
803;SDS011;25687;49.976;8.240;2023-04-25T11:24:49;6.00;;;3.33;;
803;SDS011;25687;49.976;8.240;2023-04-25T11:27:15;5.20;;;3.17;;
803;SDS011;25687;49.976;8.240;2023-04-25T11:29:41;7.67;;;3.50;;
803;SDS011;25687;49.976;8.240;2023-04-25T11:32:06;10.30;;;3.63;;
803;SDS011;25687;49.976;8.240;2023-04-25T11:34:32;8.23;;;4.03;;
803;SDS011;25687;49.976;8.240;2023-04-25T11:36:59;6.37;;;3.80;;
803;SDS011;25687;49.976;8.240;2023-04-25T11:39:25;7.97;;;3.57;;
803;SDS011;25687;49.976;8.240;2023-04-25T11:41:51;6.87;;;3.50;;
803;SDS011;25687;49.976;8.240;2023-04-25T11:44:17;10.13;;;3.90;;
803;SDS011;25687;49.976;8.240;2023-04-25T11:46:44;7.73;;;3.27;;
803;SDS011;25687;49.976;8.240;2023-04-25T11:49:10;6.07;;;3.77;;
803;SDS011;25687;49.976;8.240;2023-04-25T11:51:39;10.10;;;3.27;;
803;SDS011;25687;49.976;8.240;2023-04-25T11:54:08;9.80;;;4.00;;
803;SDS011;25687;49.976;8.240;2023-04-25T11:56:34;6.90;;;3.27;;
803;SDS011;25687;49.976;8.240;2023-04-25T11:59:00;7.67;;;3.87;;
803;SDS011;25687;49.976;8.240;2023-04-25T12:01:28;7.77;;;3.17;;
803;SDS011;25687;49.976;8.240;2023-04-25T12:03:57;7.30;;;3.33;;
803;SDS011;25687;49.976;8.240;2023-04-25T12:06:27;9.37;;;3.40;;
803;SDS011;25687;49.976;8.240;2023-04-25T12:09:02;9.80;;;3.03;;
803;SDS011;25687;49.976;8.240;2023-04-25T12:11:29;9.60;;;3.53;;
803;SDS011;25687;49.976;8.240;2023-04-25T12:13:56;7.50;;;3.40;;
803;SDS011;25687;49.976;8.240;2023-04-25T12:16:26;6.90;;;3.43;;
803;SDS011;25687;49.976;8.240;2023-04-25T12:18:52;8.93;;;3.60;;
803;SDS011;25687;49.976;8.240;2023-04-25T12:21:20;8.73;;;3.10;;
803;SDS011;25687;49.976;8.240;2023-04-25T12:23:45;9.73;;;3.67;;
803;SDS011;25687;49.976;8.240;2023-04-25T12:26:11;7.83;;;3.13;;
803;SDS011;25687;49.976;8.240;2023-04-25T12:28:36;7.07;;;3.00;;
803;SDS011;25687;49.976;8.240;2023-04-25T12:31:02;9.63;;;3.23;;
803;SDS011;25687;49.976;8.240;2023-04-25T12:33:33;5.53;;;2.80;;
803;SDS011;25687;49.976;8.240;2023-04-25T12:36:00;6.97;;;3.00;;
803;SDS011;25687;49.976;8.240;2023-04-25T12:38:35;5.93;;;2.73;;
803;SDS011;25687;49.976;8.240;2023-04-25T12:41:05;13.50;;;3.30;;
803;SDS011;25687;49.976;8.240;2023-04-25T12:43:31;11.27;;;3.30;;
803;SDS011;25687;49.976;8.240;2023-04-25T12:45:56;7.73;;;3.10;;
803;SDS011;25687;49.976;8.240;2023-04-25T12:48:22;5.40;;;2.40;;
803;SDS011;25687;49.976;8.240;2023-04-25T12:50:47;6.27;;;2.90;;
803;SDS011;25687;49.976;8.240;2023-04-25T12:53:14;8.27;;;2.80;;
803;SDS011;25687;49.976;8.240;2023-04-25T12:55:40;8.00;;;2.60;;
803;SDS011;25687;49.976;8.240;2023-04-25T12:58:05;6.27;;;2.30;;
803;SDS011;25687;49.976;8.240;2023-04-25T13:00:30;8.70;;;3.00;;
803;SDS011;25687;49.976;8.240;2023-04-25T13:02:56;7.20;;;2.80;;
803;SDS011;25687;49.976;8.240;2023-04-25T13:05:22;5.70;;;3.20;;
803;SDS011;25687;49.976;8.240;2023-04-25T13:07:47;8.33;;;2.90;;
803;SDS011;25687;49.976;8.240;2023-04-25T13:10:12;5.13;;;2.63;;
803;SDS011;25687;49.976;8.240;2023-04-25T13:12:38;5.47;;;2.73;;
803;SDS011;25687;49.976;8.240;2023-04-25T13:15:03;6.23;;;2.97;;
803;SDS011;25687;49.976;8.240;2023-04-25T13:17:29;6.53;;;2.60;;
803;SDS011;25687;49.976;8.240;2023-04-25T13:19:55;8.87;;;3.23;;
803;SDS011;25687;49.976;8.240;2023-04-25T13:22:20;6.43;;;2.33;;
803;SDS011;25687;49.976;8.240;2023-04-25T13:24:45;5.47;;;3.47;;
803;SDS011;25687;49.976;8.240;2023-04-25T13:27:11;10.53;;;2.87;;
803;SDS011;25687;49.976;8.240;2023-04-25T13:29:37;9.70;;;2.87;;
803;SDS011;25687;49.976;8.240;2023-04-25T13:32:05;6.77;;;2.70;;
803;SDS011;25687;49.976;8.240;2023-04-25T13:34:30;8.87;;;3.03;;
803;SDS011;25687;49.976;8.240;2023-04-25T13:36:56;4.13;;;2.30;;
803;SDS011;25687;49.976;8.240;2023-04-25T13:39:21;7.77;;;2.87;;
803;SDS011;25687;49.976;8.240;2023-04-25T13:41:46;6.87;;;2.80;;
803;SDS011;25687;49.976;8.240;2023-04-25T13:44:12;4.00;;;2.50;;
803;SDS011;25687;49.976;8.240;2023-04-25T13:46:38;8.63;;;2.57;;
803;SDS011;25687;49.976;8.240;2023-04-25T13:49:03;4.03;;;1.93;;
803;SDS011;25687;49.976;8.240;2023-04-25T13:51:29;5.63;;;2.63;;
803;SDS011;25687;49.976;8.240;2023-04-25T13:53:55;3.80;;;2.00;;
803;SDS011;25687;49.976;8.240;2023-04-25T13:56:21;9.23;;;2.77;;
803;SDS011;25687;49.976;8.240;2023-04-25T13:58:47;3.80;;;2.70;;
803;SDS011;25687;49.976;8.240;2023-04-25T14:01:12;4.97;;;2.40;;
803;SDS011;25687;49.976;8.240;2023-04-25T14:03:37;5.10;;;2.40;;
803;SDS011;25687;49.976;8.240;2023-04-25T14:06:03;3.93;;;1.97;;
803;SDS011;25687;49.976;8.240;2023-04-25T14:08:29;5.17;;;3.00;;
803;SDS011;25687;49.976;8.240;2023-04-25T14:10:55;3.30;;;1.83;;
803;SDS011;25687;49.976;8.240;2023-04-25T14:13:20;7.03;;;2.57;;
803;SDS011;25687;49.976;8.240;2023-04-25T14:15:46;5.43;;;2.60;;
803;SDS011;25687;49.976;8.240;2023-04-25T14:18:11;5.70;;;2.70;;
803;SDS011;25687;49.976;8.240;2023-04-25T14:20:36;8.50;;;2.50;;
803;SDS011;25687;49.976;8.240;2023-04-25T14:23:02;5.00;;;2.10;;
803;SDS011;25687;49.976;8.240;2023-04-25T14:25:28;8.50;;;2.47;;
803;SDS011;25687;49.976;8.240;2023-04-25T14:27:54;4.53;;;2.20;;
803;SDS011;25687;49.976;8.240;2023-04-25T14:30:20;9.40;;;2.23;;
803;SDS011;25687;49.976;8.240;2023-04-25T14:32:46;7.20;;;2.60;;
803;SDS011;25687;49.976;8.240;2023-04-25T14:35:14;7.37;;;2.20;;
803;SDS011;25687;49.976;8.240;2023-04-25T14:37:39;6.43;;;2.73;;
803;SDS011;25687;49.976;8.240;2023-04-25T14:40:05;7.43;;;2.77;;
803;SDS011;25687;49.976;8.240;2023-04-25T14:42:33;7.90;;;2.70;;
803;SDS011;25687;49.976;8.240;2023-04-25T14:44:59;3.70;;;2.20;;
803;SDS011;25687;49.976;8.240;2023-04-25T14:47:24;7.17;;;2.50;;
803;SDS011;25687;49.976;8.240;2023-04-25T14:49:50;4.33;;;2.33;;
803;SDS011;25687;49.976;8.240;2023-04-25T14:52:19;8.90;;;2.57;;
803;SDS011;25687;49.976;8.240;2023-04-25T14:54:45;6.23;;;2.47;;
803;SDS011;25687;49.976;8.240;2023-04-25T14:57:11;6.37;;;2.90;;
803;SDS011;25687;49.976;8.240;2023-04-25T14:59:37;7.70;;;2.87;;
803;SDS011;25687;49.976;8.240;2023-04-25T15:02:02;4.63;;;2.53;;
803;SDS011;25687;49.976;8.240;2023-04-25T15:04:28;7.50;;;3.30;;
803;SDS011;25687;49.976;8.240;2023-04-25T15:06:53;5.73;;;2.53;;
803;SDS011;25687;49.976;8.240;2023-04-25T15:09:18;5.13;;;2.40;;
803;SDS011;25687;49.976;8.240;2023-04-25T15:11:44;8.30;;;2.63;;
803;SDS011;25687;49.976;8.240;2023-04-25T15:14:10;6.33;;;2.90;;
803;SDS011;25687;49.976;8.240;2023-04-25T15:16:35;6.13;;;2.27;;